METAR Data
IDs: Format: Raw Decoded Include TAF

Data at: 1952 UTC 17 Nov 2019

KUNO 171853Z AUTO 21004KT 10SM SCT100 09/01 A2997 RMK AO2 SLP151 T00940006
KUNO 171753Z AUTO 24005KT 10SM CLR 09/01 A3000 RMK AO2 SLP162 T00890011 10089 20006 58022
KUNO 171653Z AUTO 22006KT 10SM CLR 08/01 A3004 RMK AO2 SLP175 T00780011
KUNO 171553Z AUTO 22006KT 9SM CLR 07/01 A3005 RMK AO2 SLP180 T00670011
KUNO 171453Z AUTO 21004KT 7SM CLR 05/01 A3007 RMK AO2 SLP188 T00500011 56005
KUNO 171353Z AUTO 00000KT 8SM CLR 02/00 A3007 RMK AO2 SLP189 T00220000
KUNO 171253Z AUTO 00000KT 8SM CLR 01/M01 A3007 RMK AO2 SLP188 T00061011
KUNO 171153Z AUTO 00000KT 9SM CLR 01/M02 A3009 RMK AO2 SLP194 T00061017 10044 20000 55004
KUNO 171053Z AUTO 00000KT 9SM CLR 01/M01 A3009 RMK AO2 SLP192 T00061011
KUNO 170953Z AUTO 00000KT 10SM CLR 01/M02 A3009 RMK AO2 SLP192 T00061017
KUNO 170853Z AUTO 00000KT 10SM CLR 03/M01 A3010 RMK AO2 SLP193 T00281006 58012
KUNO 170753Z AUTO 00000KT 10SM CLR 04/M01 A3011 RMK AO2 SLP197 T00391006
KUNO 170653Z AUTO 00000KT 10SM CLR 04/M01 A3013 RMK AO2 SLP204 T00391006
KUNO 170553Z AUTO 14003KT 10SM CLR 03/M02 A3013 RMK AO2 SLP207 T00281017 10061 20011 401221050 53000
KUNO 170453Z AUTO 00000KT 10SM CLR 04/M02 A3014 RMK AO2 SLP207 T00441017
KUNO 170353Z AUTO 15003KT 10SM CLR 03/M02 A3012 RMK AO2 SLP204 T00331022
KUNO 170253Z AUTO 00000KT 10SM CLR 03/M02 A3013 RMK AO2 SLP209 T00281022 58003
KUNO 170153Z AUTO 18003KT 10SM CLR 03/M02 A3014 RMK AO2 SLP212 T00331022
KUNO 170053Z AUTO 00000KT 10SM CLR 04/M02 A3014 RMK AO2 SLP216 T00391017
KUNO 162353Z AUTO 00000KT 10SM CLR 06/M02 A3014 RMK AO2 SLP217 T00611017 10122 20061 56009
KUNO 162253Z AUTO 18003KT 10SM CLR 09/M02 A3015 RMK AO2 SLP215 T00941017
KUNO 162153Z AUTO VRB03KT 10SM CLR 12/M01 A3016 RMK AO2 SLP219 T01171011
KUNO 162053Z AUTO VRB04KT 10SM CLR 12/M01 A3017 RMK AO2 SLP222 T01221006 56029
KUNO 161953Z AUTO 13004KT 10SM CLR 12/M01 A3020 RMK AO2 SLP231 T01171006
KUNO 161853Z AUTO 10SM CLR 11/M01 A3022 RMK AO2 SLP240 T01061011
KUNO 161753Z AUTO 00000KT 10SM CLR 10/M02 A3026 RMK AO2 SLP254 T01001017 10100 21050 58013
KUNO 161653Z AUTO 00000KT 10SM CLR 08/M03 A3030 RMK AO2 SLP265 T00831028
KUNO 161553Z AUTO 09005KT 10SM CLR 06/M04 A3030 RMK AO2 SLP268 T00611044
KUNO 161453Z AUTO 10006KT 10SM CLR 05/M04 A3030 RMK AO2 SLP267 T00501039 58001
KUNO 161353Z AUTO 08003KT 10SM CLR 02/M05 A3031 RMK AO2 SLP273 T00171050
KUNO 161253Z AUTO 05003KT 10SM CLR M04/M08 A3031 RMK AO2 SLP275 T10441083
KUNO 161153Z AUTO 00000KT 10SM CLR M05/M08 A3030 RMK AO2 SLP272 T10501078 11011 21050 56001
KUNO 161053Z AUTO 00000KT 10SM CLR M04/M08 A3031 RMK AO2 SLP269 T10391078
KUNO 160953Z AUTO 00000KT 10SM CLR M04/M08 A3031 RMK AO2 SLP268 T10391078
KUNO 160853Z AUTO 00000KT 10SM CLR M03/M08 A3031 RMK AO2 SLP268 T10281078 56005
KUNO 160753Z AUTO 00000KT 10SM CLR M04/M08 A3031 RMK AO2 SLP270 T10391078